Time;durP1;ratioP1;P1;durP2;ratioP2;P2;SDS_P1;SDS_P2;PMS_P1;PMS_P2;Temp;Humidity;BMP_temperature;BMP_pressure;BME280_temperature;BME280_humidity;BME280_pressure;Samples;Min_cycle;Max_cycle;Signal;HPM_P1;HPM_P2
2021/04/19 00:02:35;;;;;;;36.40;21.60;;;;;;;8.52;63.80;99163.75;263234;1104;114493;-81
2021/04/19 00:07:38;;;;;;;35.70;20.78;;;;;;;8.51;64.33;99159.36;263456;1098;114502;-81
2021/04/19 00:12:41;;;;;;;34.83;20.38;;;;;;;8.52;64.20;99147.83;263509;1104;114969;-81
2021/04/19 00:17:44;;;;;;;36.30;21.60;;;;;;;8.57;64.51;99152.03;263533;1099;114790;-82
2021/04/19 00:22:49;;;;;;;34.63;20.35;;;;;;;8.52;64.21;99152.25;263467;1104;114944;-81
2021/04/19 00:27:52;;;;;;;32.58;19.75;;;;;;;8.49;64.42;99147.10;263522;1099;114551;-82
2021/04/19 00:32:55;;;;;;;34.97;20.20;;;;;;;8.44;63.95;99142.05;263510;1104;114944;-82
2021/04/19 00:37:58;;;;;;;40.00;22.08;;;;;;;8.41;63.80;99157.27;263545;1099;114962;-82
2021/04/19 00:43:01;;;;;;;35.28;20.98;;;;;;;8.33;64.48;99149.67;263528;1104;114463;-82
2021/04/19 00:48:05;;;;;;;40.70;22.38;;;;;;;8.26;64.27;99150.92;263456;1099;115548;-82
2021/04/19 00:53:08;;;;;;;46.30;23.65;;;;;;;8.20;64.31;99146.78;263554;1104;114912;-83
2021/04/19 00:58:12;;;;;;;39.98;23.15;;;;;;;8.15;64.73;99146.17;263455;1099;114865;-82
2021/04/19 01:03:16;;;;;;;44.05;24.70;;;;;;;8.11;64.81;99135.78;263553;1104;114634;-82
2021/04/19 01:08:19;;;;;;;42.30;24.53;;;;;;;8.11;64.11;99141.08;263228;1100;115134;-82
2021/04/19 01:13:22;;;;;;;41.30;23.93;;;;;;;8.11;64.80;99133.98;263444;1104;114817;-82
2021/04/19 01:18:25;;;;;;;41.78;23.58;;;;;;;8.10;64.48;99124.33;263519;1099;114832;-81
2021/04/19 01:23:29;;;;;;;43.75;23.60;;;;;;;8.15;65.03;99130.27;261846;1098;114888;-82
2021/04/19 01:28:32;;;;;;;39.83;24.23;;;;;;;8.16;64.64;99136.42;262077;1104;115018;-82
2021/04/19 01:33:38;;;;;;;39.83;22.60;;;;;;;8.16;64.73;99142.58;263445;1104;114986;-82
2021/04/19 01:38:42;;;;;;;39.08;23.78;;;;;;;8.13;65.04;99142.73;263121;1100;114971;-82
2021/04/19 01:43:45;;;;;;;40.38;23.25;;;;;;;8.08;65.17;99128.83;263552;1104;115185;-82
2021/04/19 01:48:49;;;;;;;37.50;22.03;;;;;;;8.08;65.26;99136.78;263487;1099;114466;-76
2021/04/19 01:53:52;;;;;;;37.50;23.20;;;;;;;8.05;64.96;99143.13;263480;1104;114595;-81
2021/04/19 01:58:56;;;;;;;42.23;24.88;;;;;;;8.03;64.93;99144.13;263442;1099;114649;-81
2021/04/19 02:04:06;;;;;;;50.00;29.33;;;;;;;8.04;64.98;99140.53;263476;1104;115001;-74
2021/04/19 02:09:26;;;;;;;53.55;30.75;;;;;;;8.08;65.15;99147.38;263530;1098;115305;-81
2021/04/19 02:15:07;;;;;;;57.75;33.38;;;;;;;8.10;65.26;99137.58;263483;1104;114665;-76
2021/04/19 02:20:22;;;;;;;57.08;33.78;;;;;;;8.12;64.90;99129.53;263497;1099;115103;-75
2021/04/19 02:25:36;;;;;;;58.85;33.78;;;;;;;8.10;65.68;99129.63;263549;1104;114887;-75
2021/04/19 02:30:44;;;;;;;63.80;36.65;;;;;;;8.03;65.67;99128.22;263448;1099;114623;-82
2021/04/19 02:35:49;;;;;;;62.05;37.95;;;;;;;8.03;65.60;99128.22;263435;1104;115035;-83
2021/04/19 02:40:54;;;;;;;60.15;35.68;;;;;;;8.02;65.36;99124.72;263511;1104;114781;-81
2021/04/19 02:46:00;;;;;;;58.38;34.33;;;;;;;8.07;66.01;99121.83;262852;1104;114099;-82
2021/04/19 02:51:09;;;;;;;63.13;35.83;;;;;;;8.11;65.44;99111.92;263454;1100;117825;-81
2021/04/19 02:56:17;;;;;;;60.88;35.63;;;;;;;8.13;65.56;99112.72;263474;1104;115113;-75
2021/04/19 03:01:23;;;;;;;53.18;32.53;;;;;;;8.17;65.28;99116.92;263509;1099;114448;-76
2021/04/19 03:06:31;;;;;;;59.23;34.18;;;;;;;8.20;65.69;99109.67;263522;1104;114612;-75
2021/04/19 03:11:42;;;;;;;59.00;33.25;;;;;;;8.21;66.05;99108.72;263454;1104;114813;-76
2021/04/19 03:16:49;;;;;;;61.28;34.93;;;;;;;8.23;66.43;99111.31;262151;1104;114560;-75
2021/04/19 03:21:55;;;;;;;54.97;34.03;;;;;;;8.23;65.89;99106.02;263445;1099;114750;-77
2021/04/19 03:27:00;;;;;;;52.80;32.97;;;;;;;8.22;66.17;99109.58;263162;1104;114826;-78
2021/04/19 03:32:18;;;;;;;54.20;32.33;;;;;;;8.19;65.63;99100.01;263521;1099;114610;-77
2021/04/19 03:37:30;;;;;;;56.90;31.43;;;;;;;8.16;66.38;99096.66;263516;1099;114951;-78
2021/04/19 03:42:38;;;;;;;59.83;32.75;;;;;;;8.17;65.66;99090.41;263148;1102;117651;-75
2021/04/19 03:47:47;;;;;;;51.20;31.88;;;;;;;8.18;66.30;99095.63;263152;1099;114898;-77
2021/04/19 03:53:01;;;;;;;51.30;31.08;;;;;;;8.15;65.88;99094.92;263560;1103;114442;-78
2021/04/19 03:58:05;;;;;;;;;;;;;;;8.13;66.05;99096.81;263555;1099;115605;-74
2021/04/19 04:03:17;;;;;;;57.55;34.08;;;;;;;8.03;66.22;99093.77;263598;1104;103096;-75
2021/04/19 04:08:41;;;;;;;59.85;36.13;;;;;;;7.98;66.04;99090.48;263467;1099;114692;-77
2021/04/19 04:13:45;;;;;;;62.10;36.83;;;;;;;7.92;66.47;99093.47;263420;1104;114815;-76
2021/04/19 04:18:49;;;;;;;73.13;42.08;;;;;;;7.88;66.33;99091.88;263486;1098;115083;-76
2021/04/19 04:23:53;;;;;;;70.15;41.30;;;;;;;7.88;66.59;99094.52;263467;1104;114885;-76
2021/04/19 04:28:56;;;;;;;75.98;43.13;;;;;;;7.93;66.76;99087.22;263546;1098;115545;-77
2021/04/19 04:34:04;;;;;;;76.43;43.05;;;;;;;7.98;66.86;99093.13;263420;1103;114697;-78
2021/04/19 04:39:07;;;;;;;78.88;45.15;;;;;;;7.99;67.33;99095.72;263432;1099;114860;-78
2021/04/19 04:44:28;;;;;;;76.48;44.73;;;;;;;7.98;67.18;99090.48;263498;1104;115269;-76
2021/04/19 04:49:43;;;;;;;77.55;46.88;;;;;;;7.94;67.15;99094.22;263118;1098;115093;-80
2021/04/19 04:54:49;;;;;;;76.78;45.28;;;;;;;7.91;67.25;99091.73;263561;1104;114807;-79
2021/04/19 04:59:54;;;;;;;83.75;46.83;;;;;;;7.92;67.31;99096.97;262876;1099;114778;-80
2021/04/19 05:04:57;;;;;;;80.28;47.03;;;;;;;7.96;67.83;99097.67;263463;1104;114707;-82
2021/04/19 05:10:00;;;;;;;75.33;44.88;;;;;;;7.99;68.25;99092.22;262367;1099;114596;-83
2021/04/19 05:15:10;;;;;;;72.30;44.58;;;;;;;8.00;68.07;99089.47;262283;1104;115391;-83
2021/04/19 05:20:15;;;;;;;67.80;42.60;;;;;;;8.00;68.05;99088.63;261354;1098;114347;-85
2021/04/19 05:25:17;;;;;;;73.68;43.78;;;;;;;8.00;68.27;99093.92;261314;1104;115259;-84
2021/04/19 05:30:22;;;;;;;75.25;45.08;;;;;;;7.97;67.83;99094.92;262724;1098;115174;-82
2021/04/19 05:35:26;;;;;;;74.93;45.05;;;;;;;7.94;68.00;99088.92;263040;1104;114888;-83
2021/04/19 05:40:32;;;;;;;76.90;45.98;;;;;;;7.96;68.29;99098.52;261205;1098;114717;-81
2021/04/19 05:45:36;;;;;;;72.43;43.70;;;;;;;8.03;68.52;99093.77;259740;1104;115395;-82
2021/04/19 05:50:41;;;;;;;70.90;42.38;;;;;;;8.11;68.39;99096.02;263481;1099;114867;-82
2021/04/19 05:55:45;;;;;;;74.33;43.70;;;;;;;8.15;68.29;99092.27;263464;1104;114794;-81
2021/04/19 06:00:54;;;;;;;75.55;45.25;;;;;;;8.15;68.77;99085.20;263499;1099;114712;-81
2021/04/19 06:06:29;;;;;;;71.98;43.63;;;;;;;8.18;68.50;99100.07;263499;1104;114712;-78
2021/04/19 06:11:40;;;;;;;68.95;41.33;;;;;;;8.19;68.54;99097.36;263536;1098;115326;-80
2021/04/19 06:17:01;;;;;;;65.10;38.55;;;;;;;8.20;68.98;99088.45;263527;1104;115118;-79
2021/04/19 06:22:06;;;;;;;63.10;38.83;;;;;;;8.22;69.00;99088.36;263142;1098;115190;-79
2021/04/19 06:27:09;;;;;;;61.13;37.35;;;;;;;8.30;68.92;99081.75;263503;1104;114822;-80
2021/04/19 06:32:13;;;;;;;57.15;36.58;;;;;;;8.43;69.07;99082.00;263520;1099;115390;-79
2021/04/19 06:37:18;;;;;;;;;;;;;;;8.48;68.67;99087.05;263299;1104;115039;-78
2021/04/19 06:42:21;;;;;;;55.90;34.03;;;;;;;8.40;69.19;99102.52;263554;1099;101433;-79
2021/04/19 06:47:23;;;;;;;51.68;32.80;;;;;;;8.41;68.90;99098.92;263502;1104;115381;-79
2021/04/19 06:52:27;;;;;;;56.10;34.90;;;;;;;8.46;69.46;99088.95;263171;1098;115040;-79
2021/04/19 06:57:38;;;;;;;58.47;35.83;;;;;;;8.51;69.01;99073.63;263171;1104;114813;-80
2021/04/19 07:02:48;;;;;;;61.08;36.90;;;;;;;8.56;69.10;99076.91;262137;1100;115068;-79
2021/04/19 07:08:01;;;;;;;51.83;32.83;;;;;;;8.66;69.49;99078.13;263582;1104;114618;-80
2021/04/19 07:13:10;;;;;;;52.98;32.65;;;;;;;8.78;69.76;99078.41;263457;1099;115378;-78
2021/04/19 07:18:14;;;;;;;55.05;34.13;;;;;;;8.81;69.28;99080.89;260563;1104;115185;-75
2021/04/19 07:23:17;;;;;;;60.35;35.00;;;;;;;8.79;69.42;99074.80;263338;1103;115102;-76
2021/04/19 07:28:20;;;;;;;58.50;34.80;;;;;;;8.80;69.16;99079.16;263483;1104;115257;-76
2021/04/19 07:33:27;;;;;;;58.45;34.88;;;;;;;8.77;69.24;99064.28;263403;1099;114884;-79
2021/04/19 07:38:36;;;;;;;57.53;35.83;;;;;;;8.85;69.47;99054.09;263327;1104;115196;-79
2021/04/19 07:43:42;;;;;;;59.45;35.88;;;;;;;8.88;69.86;99061.05;263374;1099;114987;-79
2021/04/19 07:48:46;;;;;;;;;;;;;;;8.90;69.75;99069.75;262929;1104;115012;-77
2021/04/19 07:53:48;;;;;;;57.08;35.33;;;;;;;8.95;69.71;99067.72;263494;1099;101102;-77
2021/04/19 07:58:52;;;;;;;57.80;35.38;;;;;;;9.02;69.75;99073.55;263434;1104;114860;-78
2021/04/19 08:04:05;;;;;;;58.55;35.33;;;;;;;9.05;69.57;99076.04;263392;1100;114930;-77
2021/04/19 08:09:09;;;;;;;53.05;33.13;;;;;;;9.10;70.17;99064.20;263143;1104;115371;-77
2021/04/19 08:14:12;;;;;;;54.43;34.68;;;;;;;9.22;69.89;99078.61;263423;1099;114947;-78
2021/04/19 08:19:14;;;;;;;62.48;36.38;;;;;;;9.32;69.80;99071.84;263006;1104;115475;-78
2021/04/19 08:24:18;;;;;;;54.60;35.07;;;;;;;9.35;69.66;99062.85;263417;1098;115649;-77
2021/04/19 08:29:40;;;;;;;58.78;35.55;;;;;;;9.35;69.78;99070.83;262885;1105;115046;-78
2021/04/19 08:34:43;;;;;;;58.40;35.68;;;;;;;9.37;69.66;99064.45;263357;1099;115294;-80
2021/04/19 08:39:47;;;;;;;61.23;38.93;;;;;;;9.38;70.02;99071.50;263403;1100;115513;-80
2021/04/19 08:44:59;;;;;;;59.65;37.70;;;;;;;9.42;69.52;99077.50;263335;1098;115130;-80
2021/04/19 08:50:05;;;;;;;62.55;38.75;;;;;;;9.47;69.78;99070.11;263412;1104;115540;-80
2021/04/19 08:55:09;;;;;;;67.15;41.35;;;;;;;9.51;70.04;99070.79;263390;1099;114942;-80
2021/04/19 09:00:16;;;;;;;70.28;45.68;;;;;;;9.54;69.50;99070.61;263413;1102;114878;-80
2021/04/19 09:05:23;;;;;;;77.50;47.63;;;;;;;9.51;69.65;99065.47;262626;1099;115831;-82
2021/04/19 09:10:26;;;;;;;80.83;48.93;;;;;;;9.50;69.88;99054.00;262960;1104;115000;-81
2021/04/19 09:15:29;;;;;;;78.85;47.33;;;;;;;9.48;69.76;99056.75;263461;1099;115436;-82
2021/04/19 09:20:45;;;;;;;72.05;44.13;;;;;;;9.51;69.57;99060.16;263461;1104;114733;-81
2021/04/19 09:25:49;;;;;;;79.53;46.83;;;;;;;9.56;70.14;99064.28;262662;1099;115467;-81
2021/04/19 09:30:52;;;;;;;80.20;47.18;;;;;;;9.64;70.04;99059.36;263408;1104;115571;-80
2021/04/19 09:35:55;;;;;;;73.03;45.33;;;;;;;9.67;70.21;99061.00;263482;1098;115471;-81
2021/04/19 09:41:03;;;;;;;75.15;46.18;;;;;;;9.64;70.46;99056.70;263461;1101;115129;-81
2021/04/19 09:46:21;;;;;;;69.78;43.58;;;;;;;9.62;70.34;99057.77;263415;1098;114930;-83
2021/04/19 09:51:43;;;;;;;71.95;42.93;;;;;;;9.63;69.95;99057.66;262445;1104;115071;-83
2021/04/19 09:56:55;;;;;;;73.20;43.40;;;;;;;9.66;70.31;99053.98;262217;1099;115151;-83
2021/04/19 10:01:59;;;;;;;70.58;43.65;;;;;;;9.71;70.45;99051.89;263310;1104;115198;-79
2021/04/19 10:07:03;;;;;;;75.17;45.53;;;;;;;9.75;70.24;99049.91;261881;1099;115228;-83
2021/04/19 10:12:07;;;;;;;75.58;45.60;;;;;;;9.79;70.82;99048.81;262310;1104;118095;-82
2021/04/19 10:17:18;;;;;;;73.08;44.98;;;;;;;9.79;70.37;99035.52;262921;1099;114769;-82
2021/04/19 10:22:21;;;;;;;68.35;43.48;;;;;;;9.80;70.34;99038.08;262244;1104;115056;-84
2021/04/19 10:27:31;;;;;;;74.08;43.30;;;;;;;9.84;70.54;99036.09;261362;1099;114942;-81
2021/04/19 10:32:35;;;;;;;67.70;41.70;;;;;;;9.91;70.67;99040.95;263168;1104;114832;-83
2021/04/19 10:37:46;;;;;;;72.83;43.33;;;;;;;9.98;70.46;99033.46;263146;1100;115100;-83
2021/04/19 10:42:48;;;;;;;79.20;45.73;;;;;;;10.06;70.51;99030.38;263331;1100;115285;-83
2021/04/19 10:47:51;;;;;;;81.60;47.07;;;;;;;10.14;70.64;99026.28;260000;1102;115212;-83
2021/04/19 10:52:54;;;;;;;75.00;46.70;;;;;;;10.25;71.01;99017.65;263213;1104;114890;-83
2021/04/19 10:57:57;;;;;;;80.30;46.30;;;;;;;10.40;70.92;99015.91;263480;1099;115408;-83
2021/04/19 11:03:00;;;;;;;75.48;47.43;;;;;;;10.59;70.98;99012.94;263576;1104;114612;-83
2021/04/19 11:08:03;;;;;;;74.13;46.48;;;;;;;10.84;70.86;99010.45;263617;1099;115511;-83
2021/04/19 11:13:08;;;;;;;78.98;49.28;;;;;;;11.04;71.09;99009.19;263520;1104;114934;-83
2021/04/19 11:18:23;;;;;;;71.55;45.50;;;;;;;11.11;70.37;99005.17;263483;1099;115755;-83
2021/04/19 11:23:32;;;;;;;80.88;47.48;;;;;;;11.21;70.24;98996.56;263585;1104;115025;-82
2021/04/19 11:28:43;;;;;;;71.90;43.38;;;;;;;11.38;70.42;98991.01;263536;1099;114930;-82
2021/04/19 11:33:47;;;;;;;75.93;45.18;;;;;;;11.68;70.19;98989.89;263382;1104;115207;-82
2021/04/19 11:39:15;;;;;;;64.68;40.23;;;;;;;11.94;69.86;98994.34;263225;1099;115179;-79
2021/04/19 11:44:18;;;;;;;66.88;40.33;;;;;;;12.01;70.08;98990.30;263279;1104;114994;-83
2021/04/19 11:49:23;;;;;;;62.60;40.10;;;;;;;12.21;70.26;98980.92;261824;1099;115240;-83
2021/04/19 11:54:26;;;;;;;60.30;37.93;;;;;;;12.39;69.49;98977.92;261570;1104;115279;-82
2021/04/19 11:59:28;;;;;;;61.00;39.18;;;;;;;12.60;69.46;98975.55;263303;1099;115405;-83
2021/04/19 12:04:35;;;;;;;55.58;36.83;;;;;;;12.81;69.07;98967.83;262556;1104;114802;-84
2021/04/19 12:09:39;;;;;;;57.65;35.03;;;;;;;12.96;68.11;98972.05;263521;1098;115001;-83
2021/04/19 12:14:42;;;;;;;52.80;34.45;;;;;;;13.31;68.70;98958.78;262718;1104;115116;-84
2021/04/19 12:19:45;;;;;;;49.88;30.73;;;;;;;13.58;68.08;98955.85;262557;1099;115819;-82
2021/04/19 12:24:48;;;;;;;49.03;31.55;;;;;;;13.80;67.29;98949.73;263533;1104;115658;-83
2021/04/19 12:29:50;;;;;;;51.45;31.23;;;;;;;13.94;67.33;98933.47;263116;1099;115102;-85
2021/04/19 12:34:53;;;;;;;46.50;31.10;;;;;;;14.01;67.04;98927.64;263246;1104;115475;-81
2021/04/19 12:39:56;;;;;;;49.70;30.63;;;;;;;14.29;66.68;98913.78;262968;1098;115094;-83
2021/04/19 12:45:00;;;;;;;41.70;26.43;;;;;;;14.66;66.75;98909.04;263515;1101;115488;-82
2021/04/19 12:50:04;;;;;;;45.15;29.83;;;;;;;14.97;66.23;98905.69;263182;1100;115152;-83
2021/04/19 12:55:08;;;;;;;42.53;27.73;;;;;;;15.19;65.67;98904.78;263200;1104;115203;-82
2021/04/19 13:00:11;;;;;;;44.10;27.55;;;;;;;15.46;66.63;98902.47;263343;1099;115129;-74
2021/04/19 13:05:17;;;;;;;38.63;26.08;;;;;;;15.54;65.46;98905.34;263448;1104;115211;-80
2021/04/19 13:10:21;;;;;;;40.07;25.90;;;;;;;15.87;65.37;98898.12;263393;1099;115633;-78
2021/04/19 13:15:24;;;;;;;38.85;25.85;;;;;;;16.13;64.78;98897.67;263357;1104;115635;-78
2021/04/19 13:20:27;;;;;;;39.70;25.57;;;;;;;16.23;64.13;98901.26;263481;1100;115026;-78
2021/04/19 13:25:33;;;;;;;38.33;26.23;;;;;;;16.03;63.25;98890.45;263321;1104;115234;-73
2021/04/19 13:30:42;;;;;;;32.85;21.85;;;;;;;15.77;62.52;98884.64;263185;1099;114936;-78
2021/04/19 13:35:45;;;;;;;35.58;22.95;;;;;;;15.54;62.35;98886.56;262894;1104;115265;-74
2021/04/19 13:40:48;;;;;;;44.23;27.03;;;;;;;15.44;62.63;98888.33;263169;1099;115233;-79
2021/04/19 13:45:51;;;;;;;46.85;29.45;;;;;;;15.33;62.59;98883.02;263431;1104;114999;-80
2021/04/19 13:50:54;;;;;;;50.60;31.75;;;;;;;15.19;62.46;98886.02;263449;1099;115103;-74
2021/04/19 13:55:57;;;;;;;53.00;34.15;;;;;;;15.05;62.42;98897.89;263438;1100;114953;-75
2021/04/19 14:01:01;;;;;;;55.05;37.28;;;;;;;14.89;62.31;98890.25;263377;1098;115138;-79
2021/04/19 14:06:06;;;;;;;56.38;35.93;;;;;;;14.75;62.66;98888.70;263257;1104;115334;-80
2021/04/19 14:11:09;;;;;;;59.63;38.03;;;;;;;14.55;62.06;98889.48;263314;1099;115384;-80
2021/04/19 14:16:12;;;;;;;69.10;41.38;;;;;;;14.37;62.46;98891.78;263487;1104;115493;-81
2021/04/19 14:21:28;;;;;;;62.38;39.73;;;;;;;14.29;62.65;98876.31;263455;1099;115249;-83
2021/04/19 14:26:31;;;;;;;;;;;;;;;14.24;62.45;98881.19;263430;1104;115103;-79
2021/04/19 14:31:38;;;;;;;56.30;35.08;;;;;;;14.02;62.02;98873.15;263348;1099;101959;-84
2021/04/19 14:36:43;;;;;;;52.20;35.03;;;;;;;13.80;61.87;98868.64;263490;1104;115396;-81
2021/04/19 14:41:46;;;;;;;62.87;37.40;;;;;;;13.61;62.30;98870.05;263341;1099;114852;-84
2021/04/19 14:46:50;;;;;;;58.10;37.43;;;;;;;13.45;62.28;98872.20;263380;1104;115287;-83
2021/04/19 14:51:53;;;;;;;55.65;35.60;;;;;;;13.33;62.64;98870.48;263407;1099;115154;-81
2021/04/19 14:56:57;;;;;;;53.80;34.93;;;;;;;13.30;62.99;98860.87;263441;1104;115305;-82
2021/04/19 15:01:59;;;;;;;52.15;33.18;;;;;;;13.34;62.78;98859.66;263141;1099;115230;-80
2021/04/19 15:07:04;;;;;;;56.93;36.50;;;;;;;13.35;63.14;98856.03;262974;1102;115330;-82
2021/04/19 15:12:07;;;;;;;60.15;36.40;;;;;;;13.35;62.81;98860.50;263422;1099;115274;-82
2021/04/19 15:17:10;;;;;;;57.78;36.58;;;;;;;13.34;63.23;98856.98;263434;1102;115069;-80
2021/04/19 15:22:13;;;;;;;57.75;35.80;;;;;;;13.25;63.15;98858.55;263271;1099;115562;-80
2021/04/19 15:27:15;;;;;;;61.83;37.45;;;;;;;13.21;63.22;98853.50;263383;1104;115017;-82
2021/04/19 15:32:19;;;;;;;52.65;33.58;;;;;;;13.11;63.55;98864.06;262953;1100;116094;-81
2021/04/19 15:37:22;;;;;;;59.50;36.63;;;;;;;13.05;63.78;98858.33;263406;1104;115066;-76
2021/04/19 15:42:25;;;;;;;56.48;35.95;;;;;;;12.98;63.20;98871.29;263170;1100;115282;-80
2021/04/19 15:47:30;;;;;;;59.93;38.50;;;;;;;12.91;63.72;98878.06;263077;1104;115036;-80
2021/04/19 15:52:33;;;;;;;56.68;34.23;;;;;;;12.81;63.33;98888.56;263089;1099;115255;-79
2021/04/19 15:57:36;;;;;;;58.30;35.53;;;;;;;12.81;64.29;98887.72;263447;1104;114953;-81
2021/04/19 16:02:39;;;;;;;59.88;37.35;;;;;;;12.72;64.16;98894.57;262857;1099;115235;-84
2021/04/19 16:07:42;;;;;;;59.58;38.78;;;;;;;12.61;64.20;98891.84;262564;1104;115872;-78
2021/04/19 16:12:45;;;;;;;58.80;38.20;;;;;;;12.53;64.79;98879.91;263197;1100;115330;-79
2021/04/19 16:17:49;;;;;;;56.43;36.68;;;;;;;12.48;64.67;98878.52;263408;1101;115282;-80
2021/04/19 16:22:53;;;;;;;58.00;36.83;;;;;;;12.43;64.83;98886.88;263008;1098;115568;-78
2021/04/19 16:27:56;;;;;;;61.55;38.03;;;;;;;12.37;64.99;98889.13;263451;1104;117325;-79
2021/04/19 16:32:59;;;;;;;63.35;37.60;;;;;;;12.31;65.38;98901.94;263493;1097;115050;-80
2021/04/19 16:38:02;;;;;;;57.80;38.08;;;;;;;12.27;65.06;98900.45;262359;1100;115119;-81
2021/04/19 16:43:06;;;;;;;58.05;36.93;;;;;;;12.27;65.76;98896.94;263026;1104;114940;-80
2021/04/19 16:48:09;;;;;;;62.40;38.08;;;;;;;12.30;65.94;98896.72;263411;1104;114929;-78
2021/04/19 16:53:12;;;;;;;63.85;38.80;;;;;;;12.28;65.71;98898.63;263412;1104;116821;-76
2021/04/19 16:58:16;;;;;;;59.03;38.73;;;;;;;12.27;65.76;98888.93;263409;1099;116069;-76
2021/04/19 17:03:19;;;;;;;60.10;39.38;;;;;;;12.26;66.16;98897.88;263455;1104;115224;-76
2021/04/19 17:08:22;;;;;;;57.50;38.63;;;;;;;12.21;65.74;98895.55;263461;1099;116027;-75
2021/04/19 17:13:25;;;;;;;58.33;37.43;;;;;;;12.17;65.69;98904.73;263461;1104;115962;-75
2021/04/19 17:18:30;;;;;;;59.88;38.15;;;;;;;12.18;66.24;98893.09;263455;1099;115100;-75
2021/04/19 17:23:33;;;;;;;59.40;39.20;;;;;;;12.17;65.78;98888.73;262937;1104;115430;-77
2021/04/19 17:28:37;;;;;;;58.08;39.15;;;;;;;12.16;66.39;98908.38;262772;1098;114726;-76
2021/04/19 17:33:41;;;;;;;;;;;;;;;12.17;66.42;98925.23;262817;1104;114643;-79
2021/04/19 17:38:44;;;;;;;64.23;39.90;;;;;;;12.12;66.74;98941.54;263472;1100;100904;-76
2021/04/19 17:43:48;;;;;;;63.65;42.93;;;;;;;12.07;66.82;98963.20;263496;1104;114451;-76
2021/04/19 17:48:51;;;;;;;29.38;19.33;;;;;;;11.96;66.20;98965.78;263448;1098;114868;-81
2021/04/19 17:53:53;;;;;;;16.15;10.18;;;;;;;11.83;65.93;98954.20;263448;1104;114904;-78
2021/04/19 17:58:57;;;;;;;15.15;7.73;;;;;;;11.68;65.85;98941.91;263442;1099;114973;-79
2021/04/19 18:04:00;;;;;;;13.45;7.58;;;;;;;11.52;66.00;98942.97;263555;1104;114668;-79
2021/04/19 18:09:04;;;;;;;9.58;6.95;;;;;;;11.40;65.64;98946.44;263419;1099;114845;-78
2021/04/19 18:14:10;;;;;;;7.80;5.90;;;;;;;11.26;66.10;98935.86;263473;1104;114511;-77
2021/04/19 18:19:13;;;;;;;11.95;6.58;;;;;;;11.15;65.98;98935.73;262331;1099;114713;-77
2021/04/19 18:24:19;;;;;;;8.93;6.40;;;;;;;11.05;66.38;98935.47;262307;1104;115453;-78
2021/04/19 18:29:22;;;;;;;9.48;5.93;;;;;;;10.99;66.43;98941.19;263440;1099;114878;-81
2021/04/19 18:34:29;;;;;;;9.88;6.55;;;;;;;10.97;67.03;98948.41;263425;1104;115169;-77
2021/04/19 18:39:31;;;;;;;14.00;7.90;;;;;;;10.97;67.17;98932.44;263386;1099;114324;-78
2021/04/19 18:44:34;;;;;;;14.75;9.10;;;;;;;10.96;66.81;98922.75;263503;1104;114699;-85
2021/04/19 18:49:38;;;;;;;12.68;9.10;;;;;;;10.89;67.02;98922.30;263490;1098;115322;-80
2021/04/19 18:54:41;;;;;;;15.03;11.03;;;;;;;10.91;67.19;98923.06;262953;1104;115457;-82
2021/04/19 18:59:44;;;;;;;14.47;10.00;;;;;;;10.86;67.24;98914.50;263396;1099;115097;-81
2021/04/19 19:04:46;;;;;;;15.25;11.15;;;;;;;10.79;67.55;98916.70;263433;1104;115221;-81
2021/04/19 19:09:50;;;;;;;14.53;10.60;;;;;;;10.80;67.53;98920.22;263489;1098;115047;-79
2021/04/19 19:14:53;;;;;;;17.38;12.33;;;;;;;10.84;67.87;98919.09;261901;1104;115102;-83
2021/04/19 19:19:56;;;;;;;18.48;12.38;;;;;;;10.87;67.80;98910.91;263165;1098;116195;-82
2021/04/19 19:24:59;;;;;;;20.13;11.73;;;;;;;10.88;68.34;98908.13;262875;1104;114940;-83
2021/04/19 19:30:06;;;;;;;18.78;12.68;;;;;;;10.89;68.40;98911.64;262990;1099;115762;-82
2021/04/19 19:35:11;;;;;;;18.90;13.17;;;;;;;10.84;67.94;98909.30;263520;1098;116739;-81
2021/04/19 19:40:14;;;;;;;17.35;12.58;;;;;;;10.78;68.21;98912.35;261290;1098;115411;-84
2021/04/19 19:45:17;;;;;;;17.48;12.35;;;;;;;10.79;68.26;98913.20;263363;1103;115296;-77
2021/04/19 19:50:21;;;;;;;19.28;13.18;;;;;;;10.79;68.46;98914.05;263490;1098;115032;-76
2021/04/19 19:55:26;;;;;;;20.03;13.90;;;;;;;10.78;68.15;98911.50;263058;1104;115117;-79
2021/04/19 20:00:29;;;;;;;27.38;17.58;;;;;;;10.76;67.82;98908.92;262885;1099;115495;-83
2021/04/19 20:05:32;;;;;;;26.63;17.55;;;;;;;10.74;68.25;98910.00;263472;1104;114887;-84
2021/04/19 20:10:36;;;;;;;25.85;17.38;;;;;;;10.70;68.60;98908.46;263531;1099;115117;-83
2021/04/19 20:15:39;;;;;;;25.83;16.00;;;;;;;10.66;68.72;98899.83;263515;1104;115003;-84
2021/04/19 20:20:42;;;;;;;25.98;18.13;;;;;;;10.69;68.63;98898.78;262643;1099;114983;-84
2021/04/19 20:25:45;;;;;;;27.35;19.08;;;;;;;10.70;68.60;98897.81;263551;1104;115007;-84
2021/04/19 20:30:48;;;;;;;26.70;18.58;;;;;;;10.71;68.48;98886.23;263409;1098;114968;-84
2021/04/19 20:35:51;;;;;;;27.88;17.60;;;;;;;10.72;69.30;98885.27;263070;1103;115491;-85
2021/04/19 20:40:56;;;;;;;23.08;15.58;;;;;;;10.70;68.08;98877.41;263152;1098;115059;-81
2021/04/19 20:45:59;;;;;;;23.50;15.65;;;;;;;10.63;68.44;98884.05;263485;1104;114497;-80
2021/04/19 20:51:02;;;;;;;24.15;15.43;;;;;;;10.50;68.17;98881.35;262593;1098;114939;-79
2021/04/19 20:56:05;;;;;;;23.38;14.50;;;;;;;10.41;67.97;98884.59;263552;1104;114544;-80
2021/04/19 21:01:08;;;;;;;22.00;14.80;;;;;;;10.35;68.46;98883.16;263513;1099;114954;-78
2021/04/19 21:06:11;;;;;;;24.45;16.18;;;;;;;10.33;68.26;98882.42;263529;1104;120071;-79
2021/04/19 21:11:15;;;;;;;24.90;16.65;;;;;;;10.29;67.99;98882.70;260931;1104;114984;-80
2021/04/19 21:16:18;;;;;;;23.13;16.80;;;;;;;10.25;68.16;98882.01;263423;1104;115043;-85
2021/04/19 21:21:21;;;;;;;27.13;17.75;;;;;;;10.18;68.04;98880.69;263496;1098;114892;-84
2021/04/19 21:26:24;;;;;;;24.70;17.83;;;;;;;10.10;68.17;98882.98;263264;1104;114979;-84
2021/04/19 21:31:27;;;;;;;23.75;16.78;;;;;;;10.01;67.92;98879.09;263498;1098;115265;-80
2021/04/19 21:36:31;;;;;;;28.15;16.83;;;;;;;9.93;68.13;98871.59;263541;1104;115009;-80
2021/04/19 21:41:34;;;;;;;25.25;17.28;;;;;;;9.93;67.96;98865.43;263507;1099;115381;-84
2021/04/19 21:46:36;;;;;;;26.35;17.43;;;;;;;9.92;68.20;98869.89;263302;1104;114929;-83
2021/04/19 21:51:40;;;;;;;29.48;18.70;;;;;;;9.90;68.37;98868.27;262655;1099;114607;-83
2021/04/19 21:56:43;;;;;;;28.08;18.38;;;;;;;9.85;68.20;98865.91;262143;1104;114891;-83
2021/04/19 22:01:46;;;;;;;25.05;17.38;;;;;;;9.79;68.40;98865.44;263045;1098;115699;-83
2021/04/19 22:06:49;;;;;;;27.45;18.23;;;;;;;9.69;68.28;98873.96;263536;1104;114797;-83
2021/04/19 22:11:54;;;;;;;30.93;19.60;;;;;;;9.61;68.34;98873.59;263159;1099;115194;-84
2021/04/19 22:16:56;;;;;;;28.98;19.85;;;;;;;9.53;68.51;98869.67;263224;1103;114791;-82
2021/04/19 22:21:59;;;;;;;28.35;18.25;;;;;;;9.49;68.48;98874.31;262573;1099;114863;-81
2021/04/19 22:27:02;;;;;;;28.05;19.40;;;;;;;9.45;68.24;98870.99;263600;1104;114792;-79
2021/04/19 22:32:06;;;;;;;27.83;19.67;;;;;;;9.40;68.08;98873.05;263414;1098;180313;-80
2021/04/19 22:37:09;;;;;;;27.88;18.20;;;;;;;9.37;68.53;98878.55;263473;1104;114703;-80
2021/04/19 22:42:11;;;;;;;30.10;18.00;;;;;;;9.31;68.14;98873.63;263512;1099;114765;-82
2021/04/19 22:47:15;;;;;;;31.80;19.57;;;;;;;9.23;68.35;98866.09;263509;1104;114729;-82
2021/04/19 22:52:18;;;;;;;27.68;18.68;;;;;;;9.15;68.11;98867.51;263473;1098;114633;-81
2021/04/19 22:57:21;;;;;;;27.78;17.43;;;;;;;9.10;68.58;98864.25;263498;1104;115067;-83
2021/04/19 23:02:24;;;;;;;25.85;18.03;;;;;;;9.05;68.39;98861.88;263501;1099;114945;-80